createdAt,value
2019-05-03T00:01:37.485Z,5.80
2019-05-03T00:04:07.396Z,5.80
2019-05-03T00:06:37.471Z,5.80
2019-05-03T00:09:09.442Z,5.90
2019-05-03T00:11:42.180Z,5.90
2019-05-03T00:14:12.530Z,5.90
2019-05-03T00:16:43.884Z,6.00
2019-05-03T00:19:14.041Z,6.00
2019-05-03T00:21:44.074Z,5.90
2019-05-03T00:24:13.936Z,5.80
2019-05-03T00:26:44.588Z,5.60
2019-05-03T00:29:14.611Z,5.60
2019-05-03T00:31:44.974Z,5.50
2019-05-03T00:34:18.628Z,5.50
2019-05-03T00:36:52.635Z,5.40
2019-05-03T00:39:36.660Z,5.40
2019-05-03T00:42:06.725Z,5.50
2019-05-03T00:44:36.672Z,5.40
2019-05-03T00:47:07.059Z,5.40
2019-05-03T00:49:36.681Z,5.40
2019-05-03T00:52:06.781Z,5.40
2019-05-03T00:54:36.537Z,5.40
2019-05-03T00:57:06.555Z,5.30
2019-05-03T00:59:37.563Z,5.20
2019-05-03T01:02:07.574Z,5.30
2019-05-03T01:04:37.583Z,5.30
2019-05-03T01:07:07.328Z,5.30
2019-05-03T01:09:39.286Z,5.30
2019-05-03T01:12:09.836Z,5.40
2019-05-03T01:14:43.597Z,5.30
2019-05-03T01:17:13.664Z,5.30
2019-05-03T01:19:45.930Z,5.20
2019-05-03T01:22:15.899Z,5.20
2019-05-03T01:24:45.964Z,5.20
2019-05-03T01:27:15.920Z,5.20
2019-05-03T01:29:45.921Z,5.20
2019-05-03T01:32:15.977Z,5.20
2019-05-03T01:34:45.975Z,5.20
2019-05-03T01:37:16.829Z,5.00
2019-05-03T01:39:48.984Z,5.10
2019-05-03T01:42:19.023Z,5.10
2019-05-03T01:44:49.028Z,5.10
2019-05-03T01:47:25.588Z,5.10
2019-05-03T01:50:05.462Z,5.10
2019-05-03T01:52:38.050Z,5.00
2019-05-03T01:55:08.098Z,5.10
2019-05-03T01:57:38.132Z,5.00
2019-05-03T02:00:12.521Z,5.00
2019-05-03T02:02:56.113Z,5.00
2019-05-03T02:05:52.083Z,5.00
2019-05-03T02:08:22.160Z,5.00
2019-05-03T02:10:52.185Z,5.00
2019-05-03T02:13:22.938Z,5.00
2019-05-03T02:15:53.268Z,4.90
2019-05-03T02:18:23.599Z,4.90
2019-05-03T02:20:53.685Z,4.90
2019-05-03T02:23:23.712Z,4.90
2019-05-03T02:25:56.804Z,4.90
2019-05-03T02:28:26.686Z,5.00
2019-05-03T02:30:56.818Z,4.90
2019-05-03T02:33:32.708Z,5.00
2019-05-03T02:36:03.289Z,4.90
2019-05-03T02:38:33.755Z,4.90
2019-05-03T02:41:04.378Z,4.90
2019-05-03T02:43:38.878Z,4.90
2019-05-03T02:46:27.967Z,4.70
2019-05-03T02:49:21.985Z,4.70
2019-05-03T02:51:52.000Z,4.70
2019-05-03T02:54:22.292Z,4.60
2019-05-03T02:56:52.543Z,4.60
2019-05-03T02:59:22.320Z,4.60
2019-05-03T03:01:55.551Z,4.50
2019-05-03T03:04:25.978Z,4.60
2019-05-03T03:06:58.382Z,4.80
2019-05-03T03:09:28.945Z,4.80
2019-05-03T03:11:59.886Z,4.70
2019-05-03T03:14:32.992Z,4.70
2019-05-03T03:17:06.621Z,4.70
2019-05-03T03:19:37.422Z,4.70
2019-05-03T03:22:10.758Z,4.70
2019-05-03T03:24:45.969Z,4.70
2019-05-03T03:27:19.030Z,4.70
2019-05-03T03:29:55.257Z,4.80
2019-05-03T03:32:38.575Z,4.80
2019-05-03T03:35:21.185Z,4.70
2019-05-03T03:37:50.534Z,4.80
2019-05-03T03:40:21.540Z,4.80
2019-05-03T03:42:52.766Z,4.80
2019-05-03T03:45:25.372Z,4.80
2019-05-03T03:47:56.193Z,4.90
2019-05-03T03:50:27.215Z,4.80
2019-05-03T03:52:58.638Z,4.90
2019-05-03T03:55:31.641Z,4.80
2019-05-03T03:58:02.260Z,4.80
2019-05-03T04:00:32.322Z,4.70
2019-05-03T04:03:05.868Z,4.70
2019-05-03T04:05:36.071Z,4.80
2019-05-03T04:08:06.240Z,4.80
2019-05-03T04:10:38.555Z,4.70
2019-05-03T04:13:10.340Z,4.80
2019-05-03T04:15:52.396Z,4.80
2019-05-03T04:18:30.791Z,4.80
2019-05-03T04:21:00.992Z,4.80
2019-05-03T04:23:32.429Z,4.90
2019-05-03T04:26:07.054Z,4.80
2019-05-03T04:28:38.456Z,4.90
2019-05-03T04:31:08.548Z,5.00
2019-05-03T04:33:38.464Z,5.00
2019-05-03T04:36:08.504Z,5.60
2019-05-03T04:38:39.555Z,6.50
2019-05-03T04:41:09.486Z,7.00
2019-05-03T04:43:39.930Z,7.20
2019-05-03T04:46:16.181Z,7.50
2019-05-03T04:48:45.994Z,7.40
2019-05-03T04:51:16.756Z,6.50
2019-05-03T04:53:52.204Z,6.10
2019-05-03T04:56:22.207Z,5.90
2019-05-03T04:58:52.224Z,5.70
2019-05-03T05:01:22.172Z,5.70
2019-05-03T05:03:52.311Z,5.60
2019-05-03T05:06:22.264Z,5.60
2019-05-03T05:08:54.994Z,5.60
2019-05-03T05:11:26.119Z,5.60
2019-05-03T05:13:56.010Z,5.70
2019-05-03T05:16:26.349Z,5.80
2019-05-03T05:19:00.118Z,5.70
2019-05-03T05:21:35.569Z,5.70
2019-05-03T05:24:06.458Z,5.70
2019-05-03T05:26:45.392Z,5.70
2019-05-03T05:29:17.950Z,5.70
2019-05-03T05:31:49.833Z,5.70
2019-05-03T05:34:19.832Z,5.80
2019-05-03T05:36:50.217Z,5.80
2019-05-03T05:39:20.349Z,5.80
2019-05-03T05:41:50.483Z,5.80
2019-05-03T05:44:20.596Z,6.00
2019-05-03T05:47:09.499Z,6.10
2019-05-03T05:49:55.277Z,6.00
2019-05-03T05:52:25.592Z,6.10
2019-05-03T05:55:07.059Z,6.10
2019-05-03T05:57:47.996Z,6.20
2019-05-03T06:00:22.725Z,6.30
2019-05-03T06:02:55.086Z,6.40
2019-05-03T06:05:25.341Z,6.50
2019-05-03T06:08:18.145Z,6.60
2019-05-03T06:11:08.497Z,6.60
2019-05-03T06:13:49.074Z,6.80
2019-05-03T06:16:30.512Z,6.70
2019-05-03T06:19:19.521Z,6.90
2019-05-03T06:22:25.706Z,6.90
2019-05-03T06:25:06.528Z,7.10
2019-05-03T06:27:38.141Z,7.10
2019-05-03T06:30:20.238Z,7.20
2019-05-03T06:32:50.502Z,7.50
2019-05-03T06:35:30.390Z,8.00
2019-05-03T06:38:07.785Z,8.30
2019-05-03T06:40:38.261Z,8.40
2019-05-03T06:43:12.674Z,8.40
2019-05-03T06:45:41.135Z,8.20
2019-05-03T06:48:15.710Z,8.10
2019-05-03T06:50:46.264Z,8.40
2019-05-03T06:53:16.922Z,8.70
2019-05-03T06:55:48.406Z,8.60
2019-05-03T06:58:30.459Z,8.50
2019-05-03T07:01:04.767Z,8.50
2019-05-03T07:03:44.834Z,8.20
2019-05-03T07:06:49.090Z,8.30
2019-05-03T07:09:39.775Z,8.70
2019-05-03T07:12:10.137Z,8.60
2019-05-03T07:14:40.084Z,8.50
2019-05-03T07:17:10.506Z,8.50
2019-05-03T07:19:40.525Z,8.50
2019-05-03T07:22:10.617Z,8.70
2019-05-03T07:24:41.113Z,8.80
2019-05-03T07:27:12.581Z,9.00
2019-05-03T07:29:44.527Z,8.80
2019-05-03T07:32:15.578Z,8.70
2019-05-03T07:34:48.554Z,8.60
2019-05-03T07:37:18.567Z,8.40
2019-05-03T07:39:49.242Z,8.40
2019-05-03T07:42:19.240Z,8.70
2019-05-03T07:44:49.674Z,9.10
2019-05-03T07:47:20.068Z,9.10
2019-05-03T07:49:50.258Z,8.90
2019-05-03T07:52:20.359Z,8.90
2019-05-03T07:54:50.337Z,9.00
2019-05-03T07:57:31.274Z,9.10
2019-05-03T08:00:01.455Z,8.80
2019-05-03T08:02:31.692Z,8.50
2019-05-03T08:05:01.814Z,7.90
2019-05-03T08:07:32.150Z,7.80
2019-05-03T08:10:05.264Z,7.80
2019-05-03T08:12:34.911Z,7.90
2019-05-03T08:15:05.746Z,8.20
2019-05-03T08:17:35.789Z,8.40
2019-05-03T08:20:06.204Z,8.40
2019-05-03T08:22:39.848Z,8.40
2019-05-03T08:25:10.224Z,8.50
2019-05-03T08:27:40.444Z,8.60
2019-05-03T08:30:14.669Z,8.50
2019-05-03T08:33:07.568Z,8.50
2019-05-03T08:35:40.451Z,8.80
2019-05-03T08:38:10.485Z,9.30
2019-05-03T08:40:45.558Z,9.30
2019-05-03T08:43:15.744Z,9.10
2019-05-03T08:45:45.577Z,9.30
2019-05-03T08:48:15.577Z,9.50
2019-05-03T08:50:45.623Z,9.40
2019-05-03T08:53:15.820Z,9.40
2019-05-03T08:55:46.177Z,9.50
2019-05-03T08:58:16.174Z,9.60
2019-05-03T09:00:46.167Z,9.70
2019-05-03T09:03:16.049Z,9.70
2019-05-03T09:05:46.571Z,9.80
2019-05-03T09:08:16.678Z,9.90
2019-05-03T09:10:57.136Z,10.20
2019-05-03T09:13:34.297Z,10.30
2019-05-03T09:16:06.099Z,10.00
2019-05-03T09:18:36.076Z,9.70
2019-05-03T09:21:06.223Z,9.20
2019-05-03T09:23:36.525Z,8.30
2019-05-03T09:26:08.166Z,6.80
2019-05-03T09:28:38.216Z,6.20
2019-05-03T09:31:08.178Z,6.00
2019-05-03T09:33:38.838Z,6.20
2019-05-03T09:36:08.805Z,6.70
2019-05-03T09:38:40.491Z,7.20
2019-05-03T09:41:10.411Z,7.70
2019-05-03T09:43:41.306Z,8.10
2019-05-03T09:46:11.297Z,8.20
2019-05-03T09:48:42.361Z,8.50
2019-05-03T09:51:14.745Z,8.80
2019-05-03T09:53:50.942Z,8.90
2019-05-03T09:56:52.864Z,9.30
2019-05-03T09:59:11.782Z,9.50
2019-05-03T10:01:41.809Z,9.70
2019-05-03T10:04:13.036Z,9.70
2019-05-03T10:06:47.061Z,9.90
2019-05-03T10:09:17.520Z,10.00
2019-05-03T10:11:47.877Z,9.90
2019-05-03T10:14:18.072Z,9.60
2019-05-03T10:16:58.813Z,9.40
2019-05-03T10:19:39.677Z,9.20
2019-05-03T10:22:01.118Z,9.30
2019-05-03T10:24:31.113Z,9.40
2019-05-03T10:27:01.638Z,9.50
2019-05-03T10:29:32.068Z,9.60
2019-05-03T10:32:10.658Z,9.90
2019-05-03T10:34:43.665Z,10.10
2019-05-03T10:37:30.191Z,10.20
2019-05-03T10:40:04.967Z,10.40
2019-05-03T10:42:35.220Z,10.70
2019-05-03T10:45:05.312Z,10.70
2019-05-03T10:47:37.610Z,10.70
2019-05-03T10:50:15.553Z,10.70
2019-05-03T10:52:49.634Z,10.70
2019-05-03T10:55:19.685Z,10.80
2019-05-03T10:58:08.052Z,11.00
2019-05-03T11:00:45.151Z,11.10
2019-05-03T11:03:11.330Z,11.20
2019-05-03T11:05:41.347Z,11.20
2019-05-03T11:08:14.537Z,11.00
2019-05-03T11:10:44.743Z,11.10
2019-05-03T11:13:15.578Z,11.20
2019-05-03T11:15:45.490Z,11.10
2019-05-03T11:18:15.767Z,11.00
2019-05-03T11:20:45.916Z,11.10
2019-05-03T11:23:16.523Z,11.20
2019-05-03T11:25:46.429Z,11.10
2019-05-03T11:28:21.492Z,10.90
2019-05-03T11:30:57.595Z,10.70
2019-05-03T11:33:36.604Z,10.60
2019-05-03T11:36:16.857Z,10.60
2019-05-03T11:38:49.895Z,10.70
2019-05-03T11:41:30.218Z,10.70
2019-05-03T11:43:52.577Z,10.50
2019-05-03T11:46:24.754Z,10.60
2019-05-03T11:48:54.928Z,10.70
2019-05-03T11:51:25.369Z,10.90
2019-05-03T11:53:55.661Z,10.80
2019-05-03T11:56:26.355Z,10.30
2019-05-03T11:58:57.711Z,9.90
2019-05-03T12:01:40.069Z,9.70
2019-05-03T12:04:15.769Z,9.50
2019-05-03T12:06:49.018Z,9.50
2019-05-03T12:09:19.048Z,9.50
2019-05-03T12:11:52.713Z,9.60
2019-05-03T12:14:24.513Z,9.70
2019-05-03T12:17:17.123Z,9.90
2019-05-03T12:19:33.645Z,9.80
2019-05-03T12:22:06.242Z,10.00
2019-05-03T12:24:37.630Z,10.10
2019-05-03T12:27:09.535Z,10.00
2019-05-03T12:29:40.371Z,10.10
2019-05-03T12:32:11.168Z,10.30
2019-05-03T12:34:41.225Z,10.50
2019-05-03T12:37:11.221Z,10.60
2019-05-03T12:39:41.573Z,10.90
2019-05-03T12:42:12.212Z,10.80
2019-05-03T12:44:42.897Z,10.80
2019-05-03T12:47:14.653Z,10.60
2019-05-03T12:49:45.154Z,10.70
2019-05-03T12:52:16.493Z,10.70
2019-05-03T12:54:47.205Z,10.70
2019-05-03T12:57:20.722Z,10.70
2019-05-03T12:59:59.648Z,10.60
2019-05-03T13:02:35.238Z,10.50
2019-05-03T13:05:05.920Z,10.40
2019-05-03T13:07:40.964Z,10.40
2019-05-03T13:10:11.348Z,10.50
2019-05-03T13:12:50.666Z,10.40
2019-05-03T13:15:14.453Z,10.50
2019-05-03T13:17:46.328Z,10.50
2019-05-03T13:20:16.958Z,10.60
2019-05-03T13:22:47.072Z,10.40
2019-05-03T13:25:17.085Z,10.50
2019-05-03T13:27:48.142Z,10.60
2019-05-03T13:30:18.113Z,10.20
2019-05-03T13:32:49.885Z,10.10
2019-05-03T13:35:20.539Z,10.10
2019-05-03T13:37:51.219Z,10.20
2019-05-03T13:40:21.185Z,10.50
2019-05-03T13:42:59.950Z,10.60
2019-05-03T13:45:24.738Z,10.70
2019-05-03T13:47:55.432Z,10.60
2019-05-03T13:50:25.210Z,10.50
2019-05-03T13:52:55.911Z,10.10
2019-05-03T13:55:26.278Z,10.00
2019-05-03T13:57:57.259Z,10.10
2019-05-03T14:00:28.617Z,9.90
2019-05-03T14:02:58.641Z,9.80
2019-05-03T14:05:28.744Z,9.80
2019-05-03T14:07:58.661Z,9.70
2019-05-03T14:10:29.102Z,9.90
2019-05-03T14:13:00.606Z,10.00
2019-05-03T14:15:30.619Z,9.90
2019-05-03T14:18:00.831Z,9.80
2019-05-03T14:20:55.084Z,10.00
2019-05-03T14:23:25.454Z,10.10
2019-05-03T14:25:57.369Z,9.80
2019-05-03T14:28:27.474Z,9.50
2019-05-03T14:30:57.401Z,9.30
2019-05-03T14:33:28.376Z,9.30
2019-05-03T14:35:58.283Z,9.40
2019-05-03T14:38:28.969Z,9.60
2019-05-03T14:40:59.272Z,9.50
2019-05-03T14:43:29.491Z,9.70
2019-05-03T14:46:05.595Z,9.90
2019-05-03T14:48:38.275Z,10.10
2019-05-03T14:51:17.522Z,9.90
2019-05-03T14:53:47.893Z,9.80
2019-05-03T14:56:25.301Z,9.90
2019-05-03T14:59:14.855Z,9.90
2019-05-03T15:02:01.920Z,10.20
2019-05-03T15:04:35.022Z,10.50
2019-05-03T15:07:06.096Z,10.80
2019-05-03T15:09:38.196Z,10.60
2019-05-03T15:12:09.731Z,10.40
2019-05-03T15:14:41.464Z,10.50
2019-05-03T15:17:11.686Z,10.30
2019-05-03T15:19:42.791Z,10.30
2019-05-03T15:22:14.590Z,10.50
2019-05-03T15:24:49.543Z,10.90
2019-05-03T15:27:24.619Z,11.00
2019-05-03T15:29:55.567Z,11.00
2019-05-03T15:32:29.354Z,10.90
2019-05-03T15:34:59.811Z,11.00
2019-05-03T15:37:32.154Z,11.00
2019-05-03T15:40:06.028Z,11.10
2019-05-03T15:42:36.789Z,11.00
2019-05-03T15:45:25.214Z,10.80
2019-05-03T15:48:22.179Z,10.50
2019-05-03T15:50:55.403Z,10.10
2019-05-03T15:53:28.672Z,9.80
2019-05-03T15:56:05.395Z,9.80
2019-05-03T15:58:36.781Z,9.60
2019-05-03T16:01:07.547Z,9.60
2019-05-03T16:03:40.275Z,9.70
2019-05-03T16:06:10.455Z,10.00
2019-05-03T16:08:46.951Z,10.20
2019-05-03T16:11:17.788Z,10.30
2019-05-03T16:13:48.147Z,10.10
2019-05-03T16:16:24.670Z,10.10
2019-05-03T16:18:59.594Z,10.10
2019-05-03T16:21:34.171Z,10.20
2019-05-03T16:24:10.722Z,10.10
2019-05-03T16:26:56.158Z,10.20
2019-05-03T16:29:27.150Z,10.30
2019-05-03T16:31:57.542Z,10.40
2019-05-03T16:34:29.025Z,10.30
2019-05-03T16:36:59.474Z,10.40
2019-05-03T16:39:31.992Z,10.30
2019-05-03T16:42:06.943Z,10.30
2019-05-03T16:44:46.957Z,10.20
2019-05-03T16:47:19.299Z,10.00
2019-05-03T16:49:53.199Z,9.90
2019-05-03T16:52:27.293Z,9.90
2019-05-03T16:54:57.324Z,9.90
2019-05-03T16:57:27.302Z,9.90
2019-05-03T17:00:02.408Z,9.80
2019-05-03T17:02:39.367Z,9.80
2019-05-03T17:05:36.098Z,9.70
2019-05-03T17:08:34.752Z,9.90
2019-05-03T17:11:07.742Z,9.80
2019-05-03T17:13:38.341Z,9.70
2019-05-03T17:16:08.527Z,9.60
2019-05-03T17:18:38.417Z,9.50
2019-05-03T17:21:11.809Z,9.30
2019-05-03T17:23:42.421Z,9.20
2019-05-03T17:26:12.502Z,9.20
2019-05-03T17:28:44.641Z,9.00
2019-05-03T17:31:14.401Z,9.00
2019-05-03T17:33:51.423Z,8.80
2019-05-03T17:36:16.836Z,8.50
2019-05-03T17:38:50.584Z,8.30
2019-05-03T17:41:46.294Z,8.10
2019-05-03T17:44:21.837Z,7.80
2019-05-03T17:46:54.848Z,7.60
2019-05-03T17:49:26.496Z,7.50
2019-05-03T17:52:20.962Z,7.50
2019-05-03T17:55:00.555Z,7.60
2019-05-03T17:57:55.216Z,7.60
2019-05-03T18:00:44.455Z,7.50
2019-05-03T18:03:15.455Z,7.50
2019-05-03T18:05:50.582Z,7.60
2019-05-03T18:08:44.827Z,7.30
2019-05-03T18:11:17.699Z,7.20
2019-05-03T18:13:47.712Z,7.10
2019-05-03T18:16:17.527Z,7.00
2019-05-03T18:19:13.401Z,7.10
2019-05-03T18:21:30.866Z,7.20
2019-05-03T18:24:05.715Z,7.30
2019-05-03T18:26:40.337Z,7.40
2019-05-03T18:29:08.933Z,7.40
2019-05-03T18:31:39.236Z,7.40
2019-05-03T18:34:19.144Z,7.40
2019-05-03T18:36:48.597Z,7.30
2019-05-03T18:39:20.611Z,7.20
2019-05-03T18:41:50.696Z,7.20
2019-05-03T18:44:38.346Z,7.20
2019-05-03T18:47:11.234Z,7.20
2019-05-03T18:49:42.234Z,7.20
2019-05-03T18:52:14.577Z,7.30
2019-05-03T18:54:47.444Z,7.30
2019-05-03T18:57:17.354Z,7.30
2019-05-03T18:59:47.953Z,7.20
2019-05-03T19:02:20.866Z,7.30
2019-05-03T19:04:55.317Z,7.20
2019-05-03T19:07:41.267Z,7.00
2019-05-03T19:10:24.867Z,6.20
2019-05-03T19:13:14.957Z,5.40
2019-05-03T19:15:45.391Z,5.00
2019-05-03T19:18:29.766Z,4.90
2019-05-03T19:21:37.925Z,4.80
2019-05-03T19:30:44.382Z,4.90
2019-05-03T19:33:23.532Z,4.90
2019-05-03T19:39:02.649Z,5.10
2019-05-03T19:47:35.217Z,5.40
2019-05-03T19:50:15.639Z,5.40
2019-05-03T19:55:50.657Z,5.60
2019-05-03T20:08:22.251Z,5.80
2019-05-03T20:11:11.814Z,5.70
2019-05-03T20:13:48.461Z,5.60
2019-05-03T20:16:28.911Z,5.50
2019-05-03T20:18:59.235Z,5.50
2019-05-03T20:21:29.482Z,5.60
2019-05-03T20:23:59.416Z,5.60
2019-05-03T20:26:29.457Z,5.60
2019-05-03T20:28:59.447Z,5.60
2019-05-03T20:31:29.599Z,5.60
2019-05-03T20:33:59.526Z,5.60
2019-05-03T20:36:29.487Z,5.60
2019-05-03T20:39:00.401Z,5.40
2019-05-03T20:41:30.435Z,5.30
2019-05-03T20:44:10.939Z,5.20
2019-05-03T20:47:09.438Z,5.10
2019-05-03T20:49:39.361Z,5.10
2019-05-03T20:52:09.369Z,5.30
2019-05-03T20:54:39.373Z,5.30
2019-05-03T20:57:09.562Z,5.20
2019-05-03T20:59:45.894Z,5.00
2019-05-03T21:02:15.246Z,4.70
2019-05-03T21:04:47.000Z,4.50
2019-05-03T21:07:18.065Z,4.50
2019-05-03T21:09:51.029Z,4.50
2019-05-03T21:12:21.037Z,4.50
2019-05-03T21:14:51.671Z,4.50
2019-05-03T21:17:38.204Z,4.40
2019-05-03T21:20:30.501Z,4.30
2019-05-03T21:23:00.698Z,4.20
2019-05-03T21:25:50.819Z,4.10
2019-05-03T21:28:08.664Z,4.00
2019-05-03T21:30:38.740Z,3.90
2019-05-03T21:33:08.769Z,4.00
2019-05-03T21:35:45.327Z,4.10
2019-05-03T21:38:19.593Z,4.20
2019-05-03T21:40:49.763Z,4.30
2019-05-03T21:43:20.248Z,4.30
2019-05-03T21:45:54.875Z,4.10
2019-05-03T21:48:28.680Z,4.00
2019-05-03T21:50:58.677Z,4.10
2019-05-03T21:53:28.702Z,4.10
2019-05-03T21:55:58.717Z,4.00
2019-05-03T21:58:29.950Z,4.00
2019-05-03T22:01:07.329Z,4.00
2019-05-03T22:03:37.753Z,3.90
2019-05-03T22:06:07.978Z,3.90
2019-05-03T22:08:37.773Z,3.80
2019-05-03T22:11:10.084Z,3.80
2019-05-03T22:13:41.975Z,3.70
2019-05-03T22:16:20.401Z,3.80
2019-05-03T22:18:51.045Z,3.80
2019-05-03T22:21:27.616Z,3.80
2019-05-03T22:24:27.426Z,3.80
2019-05-03T22:27:00.363Z,3.80
2019-05-03T22:29:30.528Z,3.80
2019-05-03T22:32:00.518Z,3.90
2019-05-03T22:34:30.549Z,3.90
2019-05-03T22:37:00.594Z,4.10
2019-05-03T22:39:30.567Z,4.30
2019-05-03T22:42:00.669Z,4.50
2019-05-03T22:44:31.905Z,4.40
2019-05-03T22:47:01.768Z,4.20
2019-05-03T22:49:32.081Z,4.10
2019-05-03T22:52:04.915Z,4.10
2019-05-03T22:54:35.055Z,4.10
2019-05-03T22:57:05.074Z,3.90
2019-05-03T22:59:35.578Z,3.90
2019-05-03T23:02:05.410Z,4.00
2019-05-03T23:04:35.654Z,4.00
2019-05-03T23:07:06.174Z,3.90
2019-05-03T23:09:36.170Z,3.90
2019-05-03T23:12:06.173Z,3.90
2019-05-03T23:14:36.176Z,4.00
2019-05-03T23:17:06.206Z,4.00
2019-05-03T23:19:37.760Z,3.90
2019-05-03T23:22:15.233Z,3.90
2019-05-03T23:24:44.980Z,4.00
2019-05-03T23:27:15.821Z,4.00
2019-05-03T23:29:46.211Z,4.00
2019-05-03T23:32:16.400Z,4.00
2019-05-03T23:34:46.499Z,4.00
2019-05-03T23:37:16.527Z,4.00
2019-05-03T23:39:46.532Z,4.10
2019-05-03T23:42:16.512Z,4.00
2019-05-03T23:44:46.517Z,3.90
2019-05-03T23:47:34.499Z,3.90
2019-05-03T23:50:05.578Z,3.90
2019-05-03T23:52:37.293Z,3.90
2019-05-03T23:55:29.601Z,3.90
2019-05-03T23:57:59.400Z,3.80
